Time;durP1;ratioP1;P1;durP2;ratioP2;P2;SDS_P1;SDS_P2;PMS_P1;PMS_P2;Temp;Humidity;BMP_temperature;BMP_pressure;BME280_temperature;BME280_humidity;BME280_pressure;Samples;Min_cycle;Max_cycle;Signal;HPM_P1;HPM_P2
2022/09/01 00:11:39;;;;;;;;;;;;;;;20.60;78.54;99339.91;5647797;23;1699;-67
2022/09/01 00:14:06;;;;;;;;;;;;;;;20.62;78.63;99338.66;4993115;28;885;-67
2022/09/01 00:16:33;;;;;;;;;;;;;;;20.64;78.78;99345.34;4993074;28;814;-67
2022/09/01 00:18:59;;;;;;;;;;;;;;;20.62;78.76;99338.66;4992981;28;826;-67
2022/09/01 00:21:29;;;;;;;;;;;;;;;20.60;78.86;99333.53;4992995;28;870;-64
2022/09/01 00:23:55;;;;;;;;;;;;;;;20.67;78.60;99338.75;4992925;28;881;-67
2022/09/01 00:26:35;;;;;;;;;;;;;;;20.68;78.48;99337.50;4992705;28;1977;-68
2022/09/01 00:29:02;;;;;;;;;;;;;;;20.67;78.76;99333.13;4992800;28;862;-67
2022/09/01 00:34:32;;;;;;;;;;;;;;;20.70;78.14;99334.22;4992592;28;1411;-67
2022/09/01 00:40:03;;;;;;;;;;;;;;;20.70;77.67;99329.38;4992654;28;707;-66
2022/09/01 00:42:32;;;;;;;;;;;;;;;20.68;77.83;99325.50;4992575;28;882;-67
2022/09/01 00:45:07;;;;;;;;;;;;;;;20.66;77.59;99322.41;4992412;28;1098;-67
2022/09/01 00:47:34;;;;;;;;;;;;;;;20.68;77.80;99325.50;4992457;28;1939;-67
2022/09/01 01:02:12;;;;;;;;;;;;;;;20.47;78.48;99318.97;4992294;28;708;-67
2022/09/01 01:04:39;;;;;;;;;;;;;;;20.47;78.63;99319.75;4991986;28;823;-66
2022/09/01 01:07:12;;;;;;;;;;;;;;;20.44;78.54;99315.09;4992187;28;1898;-65
2022/09/01 01:09:41;;;;;;;;;;;;;;;20.43;78.54;99315.56;4992192;28;819;-66
2022/09/01 01:12:12;;;;;;;;;;;;;;;20.43;78.34;99315.56;4992093;28;1235;-67
2022/09/01 01:14:40;;;;;;;;;;;;;;;20.40;78.63;99317.31;4992198;28;1090;-67
2022/09/01 01:17:06;;;;;;;;;;;;;;;20.39;78.71;99322.13;4992195;28;866;-66
2022/09/01 01:25:24;;;;;;;;;;;;;;;20.33;78.98;99314.88;4992043;28;1911;-67
2022/09/01 01:27:50;;;;;;;;;;;;;;;20.30;79.14;99318.66;4992082;28;803;-67
2022/09/01 01:30:18;;;;;;;;;;;;;;;20.30;79.15;99315.84;4992208;28;901;-67
2022/09/01 01:32:44;;;;;;;;;;;;;;;20.27;79.32;99311.19;4991985;28;806;-66
2022/09/01 01:35:14;;;;;;;;;;;;;;;20.24;79.58;99307.31;4990823;28;878;-67
2022/09/01 01:37:44;;;;;;;;;;;;;;;20.21;79.71;99308.28;4992109;28;830;-67
2022/09/01 01:40:14;;;;;;;;;;;;;;;20.21;79.84;99302.69;4991849;28;901;-67
2022/09/01 01:42:47;;;;;;;;;;;;;;;20.21;79.99;99307.53;4991953;28;870;-67
2022/09/01 01:45:15;;;;;;;;;;;;;;;20.18;80.18;99309.25;4991964;28;901;-67
2022/09/01 01:47:42;;;;;;;;;;;;;;;20.14;80.26;99315.06;4991763;28;1887;-67
2022/09/01 01:50:08;;;;;;;;;;;;;;;20.12;80.63;99316.75;4991897;28;854;-66
2022/09/01 01:52:35;;;;;;;;;;;;;;;20.09;80.98;99315.69;4991833;28;889;-68
2022/09/01 01:55:01;;;;;;;;;;;;;;;20.09;81.01;99312.91;4991866;28;917;-67
2022/09/01 01:57:30;;;;;;;;;;;;;;;20.11;80.88;99321.59;4991798;28;826;-67
2022/09/01 01:59:56;;;;;;;;;;;;;;;20.14;80.82;99315.06;4991801;28;821;-66
2022/09/01 02:02:22;;;;;;;;;;;;;;;20.14;80.86;99305.84;4991951;28;917;-67
2022/09/01 02:04:48;;;;;;;;;;;;;;;20.15;80.68;99305.38;4991820;28;890;-67
2022/09/01 02:07:15;;;;;;;;;;;;;;;20.21;80.57;99308.28;4991728;28;1886;-66
2022/09/01 02:09:44;;;;;;;;;;;;;;;20.23;80.38;99302.19;4991582;28;857;-67
2022/09/01 02:12:10;;;;;;;;;;;;;;;20.18;80.56;99296.00;4991642;28;1380;-68
2022/09/01 02:14:37;;;;;;;;;;;;;;;20.16;80.75;99290.09;4991723;28;984;-67
2022/09/01 02:17:05;;;;;;;;;;;;;;;20.16;80.65;99304.13;4995244;28;814;-66
2022/09/01 02:19:30;;;;;;;;;;;;;;;20.16;80.69;99303.34;4995179;28;798;-67
2022/09/01 02:21:58;;;;;;;;;;;;;;;20.12;80.85;99291.53;4995149;28;858;-66
2022/09/01 02:24:25;;;;;;;;;;;;;;;20.09;81.03;99298.88;4995089;28;846;-68
2022/09/01 02:26:50;;;;;;;;;;;;;;;20.09;81.07;99290.47;4995029;28;1973;-69
2022/09/01 02:29:20;;;;;;;;;;;;;;;20.04;81.34;99291.13;4994976;28;846;-66
2022/09/01 02:31:47;;;;;;;;;;;;;;;19.99;81.61;99274.94;4994996;28;842;-67
2022/09/01 02:34:12;;;;;;;;;;;;;;;19.99;81.59;99280.56;4994950;28;869;-67
2022/09/01 02:36:46;;;;;;;;;;;;;;;19.92;81.98;99287.31;4994882;28;866;-67
2022/09/01 02:39:19;;;;;;;;;;;;;;;19.91;82.06;99285.78;4994713;28;882;-69
2022/09/01 02:41:44;;;;;;;;;;;;;;;19.90;82.11;99297.47;4995046;28;839;-67
2022/09/01 02:44:13;;;;;;;;;;;;;;;19.88;82.19;99291.56;4995677;28;831;-68
2022/09/01 02:46:43;;;;;;;;;;;;;;;19.88;82.24;99283.91;4994751;28;1882;-67
2022/09/01 02:49:14;;;;;;;;;;;;;;;19.88;82.27;99269.91;4994672;28;850;-67
2022/09/01 02:51:40;;;;;;;;;;;;;;;19.90;82.10;99284.22;4994570;28;827;-66
2022/09/01 02:54:06;;;;;;;;;;;;;;;19.90;81.98;99275.03;4994612;28;803;-68
2022/09/01 02:56:32;;;;;;;;;;;;;;;19.88;82.22;99283.16;4994696;28;860;-67
2022/09/01 02:59:00;;;;;;;;;;;;;;;19.86;82.27;99285.66;4993299;28;819;-67
2022/09/01 03:01:31;;;;;;;;;;;;;;;19.80;82.51;99296.78;4994405;28;902;-67
2022/09/01 03:04:00;;;;;;;;;;;;;;;19.79;82.60;99284.78;4994382;28;799;-68
2022/09/01 03:06:27;;;;;;;;;;;;;;;19.82;82.42;99283.03;4994393;28;1894;-67
2022/09/01 03:08:54;;;;;;;;;;;;;;;19.79;82.56;99290.38;4994191;28;881;-66
2022/09/01 03:11:20;;;;;;;;;;;;;;;19.81;82.63;99291.94;4994313;28;1383;-67
2022/09/01 03:13:46;;;;;;;;;;;;;;;19.77;82.79;99290.06;4994225;28;886;-67
2022/09/01 03:16:12;;;;;;;;;;;;;;;19.75;82.93;99294.63;4994145;28;815;-67
2022/09/01 03:18:37;;;;;;;;;;;;;;;19.71;83.01;99277.97;4994059;28;980;-66
2022/09/01 03:21:04;;;;;;;;;;;;;;;19.69;83.18;99288.84;4994190;28;970;-66
2022/09/01 03:23:30;;;;;;;;;;;;;;;19.68;83.26;99286.56;4993956;28;815;-66
2022/09/01 03:29:26;;;;;;;;;;;;;;;19.59;83.79;99296.56;4994464;28;673;-67
2022/09/01 03:31:55;;;;;;;;;;;;;;;19.53;83.99;99292.09;4994146;28;878;-65
2022/09/01 03:34:22;;;;;;;;;;;;;;;19.50;84.36;99287.44;4993816;28;815;-65
2022/09/01 03:39:50;;;;;;;;;;;;;;;19.50;84.28;99293.03;4993975;28;673;-66
2022/09/01 03:42:24;;;;;;;;;;;;;;;19.50;84.41;99295.84;4993667;28;850;-67
2022/09/01 03:44:52;;;;;;;;;;;;;;;19.48;84.44;99293.53;4993647;28;854;-66
2022/09/01 03:47:20;;;;;;;;;;;;;;;19.49;84.42;99302.69;4993509;28;1922;-66
2022/09/01 03:49:48;;;;;;;;;;;;;;;19.49;84.40;99300.66;4993521;28;818;-67
2022/09/01 03:52:16;;;;;;;;;;;;;;;19.49;84.41;99311.13;4993535;28;858;-66
2022/09/01 03:54:44;;;;;;;;;;;;;;;19.49;84.46;99311.13;4993365;28;881;-66
2022/09/01 03:57:10;;;;;;;;;;;;;;;19.49;84.55;99309.06;4993458;28;909;-66
2022/09/01 03:59:42;;;;;;;;;;;;;;;19.51;84.49;99317.03;4993278;28;878;-66
2022/09/01 04:02:09;;;;;;;;;;;;;;;19.52;84.30;99319.34;4993366;28;854;-66
2022/09/01 04:04:36;;;;;;;;;;;;;;;19.53;84.30;99318.09;4993205;28;894;-66
2022/09/01 04:19:41;;;;;;;;;;;;;;;19.67;83.59;99318.63;4984270;28;1263;-66
2022/09/01 04:22:12;;;;;;;;;;;;;;;19.70;83.27;99324.09;4991658;28;1181;-65
2022/09/01 04:31:16;;;;;;;;;;;;;;;19.83;82.49;99309.84;4992794;28;626;-66
2022/09/01 04:33:45;;;;;;;;;;;;;;;19.88;82.51;99317.56;4992738;28;862;-66
2022/09/01 04:39:15;;;;;;;;;;;;;;;20.02;81.81;99318.88;4991913;28;1233;-66
2022/09/01 04:41:44;;;;;;;;;;;;;;;20.10;81.48;99316.47;4992818;28;831;-67
2022/09/01 04:44:12;;;;;;;;;;;;;;;20.17;81.04;99325.31;4992550;28;870;-66
2022/09/01 04:46:56;;;;;;;;;;;;;;;20.25;80.46;99317.31;4992484;28;1963;-66
2022/09/01 04:49:22;;;;;;;;;;;;;;;20.34;79.94;99320.00;4992463;28;874;-66
2022/09/01 04:51:51;;;;;;;;;;;;;;;20.46;79.34;99326.63;4992465;28;819;-66
2022/09/01 04:54:17;;;;;;;;;;;;;;;20.54;79.09;99316.53;4992378;28;806;-66
2022/09/01 04:56:56;;;;;;;;;;;;;;;20.62;78.51;99327.44;4992286;28;1098;-66
2022/09/01 04:59:26;;;;;;;;;;;;;;;20.73;77.95;99328.41;4992337;28;980;-67
2022/09/01 05:01:54;;;;;;;;;;;;;;;20.84;77.34;99332.66;4992372;28;898;-66
2022/09/01 05:04:23;;;;;;;;;;;;;;;20.92;77.02;99337.41;4992280;28;894;-67
2022/09/01 05:06:58;;;;;;;;;;;;;;;20.98;76.59;99341.06;4992149;28;1986;-66
2022/09/01 05:09:28;;;;;;;;;;;;;;;21.09;76.00;99342.53;4992215;28;822;-66
2022/09/01 05:11:56;;;;;;;;;;;;;;;21.19;75.22;99349.59;4991052;28;1342;-66
2022/09/01 05:14:24;;;;;;;;;;;;;;;21.33;74.68;99342.38;4992212;28;807;-66
2022/09/01 05:16:55;;;;;;;;;;;;;;;21.38;74.58;99352.94;4992200;28;874;-66
2022/09/01 05:19:23;;;;;;;;;;;;;;;21.46;73.91;99354.09;4991977;28;1231;-66
2022/09/01 05:21:56;;;;;;;;;;;;;;;21.47;73.49;99360.50;4992179;28;910;-66
2022/09/01 05:24:29;;;;;;;;;;;;;;;21.53;73.59;99356.53;4992024;28;807;-66
2022/09/01 05:26:56;;;;;;;;;;;;;;;21.74;73.23;99368.59;4992353;28;1969;-66
2022/09/01 05:29:24;;;;;;;;;;;;;;;21.91;72.30;99370.81;4992137;28;799;-67
2022/09/01 05:31:51;;;;;;;;;;;;;;;21.99;71.44;99364.28;4992318;28;858;-66
2022/09/01 05:34:25;;;;;;;;;;;;;;;22.14;71.10;99378.28;4992222;28;815;-66
2022/09/01 05:36:52;;;;;;;;;;;;;;;22.34;70.56;99376.75;4991929;28;823;-66
2022/09/01 05:39:19;;;;;;;;;;;;;;;22.47;70.16;99377.19;4991930;28;803;-66
2022/09/01 05:41:48;;;;;;;;;;;;;;;22.55;69.20;99377.50;4992047;28;819;-66
2022/09/01 05:44:15;;;;;;;;;;;;;;;22.69;68.73;99378.69;4991951;28;835;-66
2022/09/01 05:46:46;;;;;;;;;;;;;;;22.84;68.58;99382.16;4991858;28;1890;-66
2022/09/01 05:49:14;;;;;;;;;;;;;;;23.02;67.37;99381.84;4993213;28;905;-67
2022/09/01 05:51:48;;;;;;;;;;;;;;;23.15;66.80;99391.94;4995697;28;901;-66
2022/09/01 05:54:17;;;;;;;;;;;;;;;23.34;66.56;99379.03;4995915;28;868;-67
2022/09/01 05:56:44;;;;;;;;;;;;;;;23.46;65.86;99388.34;4994399;28;1293;-67
2022/09/01 05:59:12;;;;;;;;;;;;;;;23.66;64.83;99384.63;4995669;28;894;-67
2022/09/01 06:13:51;;;;;;;;;;;;;;;24.07;62.38;99378.72;4995629;28;672;-67
2022/09/01 06:16:18;;;;;;;;;;;;;;;24.11;62.21;99393.38;4995473;28;795;-67
2022/09/01 06:18:45;;;;;;;;;;;;;;;24.34;61.49;99384.97;4994912;28;1407;-67
2022/09/01 06:21:15;;;;;;;;;;;;;;;24.45;60.79;99382.97;4995432;28;922;-66
2022/09/01 06:27:02;;;;;;;;;;;;;;;24.70;60.12;99396.66;4934995;29;1984;-67
2022/09/01 06:32:33;;;;;;;;;;;;;;;25.21;57.92;99391.88;4935083;29;662;-66
2022/09/01 06:35:00;;;;;;;;;;;;;;;25.50;56.64;99392.59;4934769;29;900;-67
2022/09/01 06:37:27;;;;;;;;;;;;;;;26.01;54.45;99387.63;4935002;29;902;-67
2022/09/01 06:39:54;;;;;;;;;;;;;;;26.71;53.13;99379.84;4934908;29;883;-67
2022/09/01 06:42:24;;;;;;;;;;;;;;;27.53;50.69;99389.56;4934803;29;958;-67
2022/09/01 06:57:02;;;;;;;;;;;;;;;29.64;45.16;99393.41;4934676;29;831;-67
2022/09/01 06:59:37;;;;;;;;;;;;;;;30.56;43.10;99393.97;4934549;29;1194;-67
2022/09/01 07:02:15;;;;;;;;;;;;;;;30.87;42.17;99400.03;4993739;28;845;-67
2022/09/01 07:04:42;;;;;;;;;;;;;;;30.76;41.65;99391.69;4994324;28;815;-67
2022/09/01 07:07:09;;;;;;;;;;;;;;;31.18;40.79;99391.78;4994162;28;1891;-67
2022/09/01 07:09:36;;;;;;;;;;;;;;;31.68;40.02;99398.28;4994319;28;869;-66
2022/09/01 07:12:02;;;;;;;;;;;;;;;32.01;39.00;99407.31;4994512;28;911;-66
2022/09/01 07:14:29;;;;;;;;;;;;;;;32.42;38.08;99409.22;4994315;28;818;-66
2022/09/01 07:16:57;;;;;;;;;;;;;;;32.74;38.08;99403.06;4994168;28;1079;-67
2022/09/01 07:19:24;;;;;;;;;;;;;;;32.37;37.37;99413.00;4993958;28;1275;-67
2022/09/01 07:21:51;;;;;;;;;;;;;;;32.28;38.44;99411.41;4994015;28;846;-66
2022/09/01 07:24:19;;;;;;;;;;;;;;;32.68;37.64;99402.47;4994063;28;815;-67
2022/09/01 07:39:25;;;;;;;;;;;;;;;30.85;39.71;99405.47;4993809;28;621;-66
2022/09/01 07:41:53;;;;;;;;;;;;;;;31.07;39.62;99405.00;4994023;28;807;-66
2022/09/01 07:44:19;;;;;;;;;;;;;;;31.47;38.88;99410.53;4993645;28;814;-65
2022/09/01 07:47:16;;;;;;;;;;;;;;;31.78;38.65;99413.59;4993602;28;1906;-65
2022/09/01 07:49:45;;;;;;;;;;;;;;;32.25;37.48;99415.44;4994082;28;787;-66
2022/09/01 07:52:20;;;;;;;;;;;;;;;32.45;37.49;99419.50;4993668;28;795;-66
2022/09/01 07:55:11;;;;;;;;;;;;;;;32.68;37.06;99413.91;4992223;28;1224;-67
2022/09/01 07:57:41;;;;;;;;;;;;;;;32.64;37.08;99412.75;4993453;28;854;-66
2022/09/01 08:00:08;;;;;;;;;;;;;;;32.81;36.76;99406.50;4993379;28;870;-66
2022/09/01 08:02:40;;;;;;;;;;;;;;;32.63;36.83;99414.84;4993322;28;862;-66
2022/09/01 08:05:08;;;;;;;;;;;;;;;32.57;36.39;99416.38;4993135;28;851;-66
2022/09/01 08:19:45;;;;;;;;;;;;;;;32.90;35.65;99406.72;4992696;28;1200;-66
2022/09/01 08:22:11;;;;;;;;;;;;;;;32.73;36.21;99409.34;4992929;28;862;-65
2022/09/01 08:24:39;;;;;;;;;;;;;;;32.45;36.44;99405.22;4992931;28;847;-65
2022/09/01 08:27:05;;;;;;;;;;;;;;;32.46;36.43;99397.41;4992876;28;1918;-66
2022/09/01 08:29:49;;;;;;;;;;;;;;;32.87;36.10;99402.13;4992821;28;874;-66
2022/09/01 08:32:16;;;;;;;;;;;;;;;32.70;36.12;99399.81;4992800;28;827;-66
2022/09/01 08:34:45;;;;;;;;;;;;;;;32.96;35.94;99397.94;4992596;28;886;-65
2022/09/01 08:52:30;;;;;;;;;;;;;;;33.34;34.93;99377.97;4989862;28;1111;-66
2022/09/01 08:55:11;;;;;;;;;;;;;;;33.68;34.74;99381.81;4992529;28;867;-66
2022/09/01 08:57:56;;;;;;;;;;;;;;;33.68;34.55;99368.22;4993073;28;791;-66
2022/09/01 09:03:54;;;;;;;;;;;;;;;33.67;34.20;99372.44;4992352;28;649;-66
2022/09/01 09:06:31;;;;;;;;;;;;;;;33.41;34.47;99364.97;4990860;28;1906;-65
2022/09/01 09:09:00;;;;;;;;;;;;;;;33.09;35.08;99374.16;4992305;28;863;-64
2022/09/01 09:11:42;;;;;;;;;;;;;;;33.03;35.16;99368.59;4992331;28;937;-65
2022/09/01 09:14:29;;;;;;;;;;;;;;;32.71;35.62;99361.28;4990844;28;1311;-66
2022/09/01 09:16:57;;;;;;;;;;;;;;;32.19;36.26;99360.50;4992228;28;835;-65
2022/09/01 09:31:42;;;;;;;;;;;;;;;32.81;35.07;99352.91;4996733;28;664;-65
2022/09/01 09:34:31;;;;;;;;;;;;;;;32.77;35.04;99346.78;4996141;28;834;-65
2022/09/01 09:37:16;;;;;;;;;;;;;;;32.55;35.82;99348.28;4996089;28;870;-66
2022/09/01 09:39:43;;;;;;;;;;;;;;;32.78;35.14;99348.34;4994735;28;1243;-66
2022/09/01 09:42:11;;;;;;;;;;;;;;;32.60;35.12;99340.84;4994665;28;1558;-66
2022/09/01 09:44:51;;;;;;;;;;;;;;;32.58;35.30;99334.94;4995890;28;783;-66
2022/09/01 09:47:41;;;;;;;;;;;;;;;32.42;35.19;99339.81;4995811;28;1890;-65
2022/09/01 09:50:15;;;;;;;;;;;;;;;32.21;36.00;99337.84;4994615;28;1411;-66
2022/09/01 09:52:45;;;;;;;;;;;;;;;32.33;35.42;99347.59;4995862;28;855;-66
2022/09/01 09:55:24;;;;;;;;;;;;;;;33.14;34.35;99342.47;4995685;28;1224;-66
2022/09/01 09:57:55;;;;;;;;;;;;;;;32.91;34.68;99333.84;4995763;28;791;-66
2022/09/01 10:00:24;;;;;;;;;;;;;;;33.03;34.12;99339.19;4995641;28;801;-67
2022/09/01 10:02:56;;;;;;;;;;;;;;;33.46;32.55;99332.53;4995403;28;792;-66
2022/09/01 10:05:35;;;;;;;;;;;;;;;33.71;32.20;99332.72;4995524;28;969;-66
2022/09/01 10:08:03;;;;;;;;;;;;;;;33.46;32.72;99329.66;4995449;28;1874;-65
2022/09/01 10:10:37;;;;;;;;;;;;;;;32.47;34.14;99327.44;4995350;28;833;-65
2022/09/01 10:13:04;;;;;;;;;;;;;;;31.77;34.62;99326.34;4995354;28;831;-65
2022/09/01 10:15:32;;;;;;;;;;;;;;;31.53;35.00;99330.41;4995392;28;847;-65
2022/09/01 10:18:09;;;;;;;;;;;;;;;32.14;34.00;99322.19;4995208;28;835;-65
2022/09/01 10:20:38;;;;;;;;;;;;;;;33.21;33.24;99320.16;4995185;28;1482;-66
2022/09/01 10:23:05;;;;;;;;;;;;;;;33.91;31.57;99321.56;4993817;28;1311;-66
2022/09/01 10:25:34;;;;;;;;;;;;;;;34.05;31.21;99319.22;4995358;28;847;-66
2022/09/01 10:28:13;;;;;;;;;;;;;;;34.25;30.99;99318.22;4993743;28;1970;-65
2022/09/01 10:30:44;;;;;;;;;;;;;;;34.46;31.11;99322.88;4995200;28;893;-66
2022/09/01 10:33:14;;;;;;;;;;;;;;;33.80;32.25;99302.69;4995679;28;795;-65
2022/09/01 10:35:44;;;;;;;;;;;;;;;33.58;32.03;99306.34;4993911;28;815;-66
2022/09/01 10:38:19;;;;;;;;;;;;;;;33.71;31.94;99306.94;4994958;28;831;-65
2022/09/01 10:40:49;;;;;;;;;;;;;;;33.04;32.70;99303.53;4994794;28;894;-65
2022/09/01 10:43:24;;;;;;;;;;;;;;;32.38;32.40;99300.16;4995015;28;819;-66
2022/09/01 10:45:51;;;;;;;;;;;;;;;32.35;33.00;99299.19;4994663;28;1882;-66
2022/09/01 10:48:20;;;;;;;;;;;;;;;33.36;32.20;99297.22;4994707;28;874;-66
2022/09/01 10:50:47;;;;;;;;;;;;;;;34.57;30.75;99294.50;4993382;28;1346;-66
2022/09/01 10:53:32;;;;;;;;;;;;;;;35.30;29.83;99290.72;4994578;28;842;-67
2022/09/01 10:56:10;;;;;;;;;;;;;;;35.88;28.33;99293.38;4993290;28;1335;-67
2022/09/01 10:58:43;;;;;;;;;;;;;;;35.79;28.45;99294.06;4994519;28;914;-66
2022/09/01 11:01:10;;;;;;;;;;;;;;;35.57;28.94;99282.22;4994722;28;910;-66
2022/09/01 11:03:54;;;;;;;;;;;;;;;35.23;28.86;99294.44;4994415;28;806;-66
2022/09/01 11:06:44;;;;;;;;;;;;;;;34.15;30.48;99288.63;4994335;28;1914;-66
2022/09/01 11:09:21;;;;;;;;;;;;;;;33.30;31.97;99285.97;4993076;28;1323;-66
2022/09/01 11:12:03;;;;;;;;;;;;;;;32.57;32.34;99281.94;4994475;28;949;-66
2022/09/01 11:14:34;;;;;;;;;;;;;;;32.08;33.33;99283.69;4993153;28;1354;-66
2022/09/01 11:17:11;;;;;;;;;;;;;;;31.69;33.84;99286.34;4994348;28;898;-66
2022/09/01 11:19:39;;;;;;;;;;;;;;;31.59;33.56;99288.19;4994089;28;1271;-67
2022/09/01 11:22:25;;;;;;;;;;;;;;;31.93;33.10;99287.97;4994275;28;890;-66
2022/09/01 11:25:06;;;;;;;;;;;;;;;32.94;32.40;99266.88;4992793;28;1196;-66
2022/09/01 11:27:54;;;;;;;;;;;;;;;34.01;30.64;99272.97;4993967;28;1977;-66
2022/09/01 11:30:32;;;;;;;;;;;;;;;34.70;29.60;99267.66;4992690;28;1295;-66
2022/09/01 11:33:27;;;;;;;;;;;;;;;35.52;28.82;99268.84;4993922;28;881;-66
2022/09/01 11:36:03;;;;;;;;;;;;;;;36.34;27.50;99272.66;4992546;28;1328;-66
2022/09/01 11:38:38;;;;;;;;;;;;;;;36.79;26.38;99269.72;4993913;28;871;-67
2022/09/01 11:41:05;;;;;;;;;;;;;;;36.59;25.73;99266.75;4993827;28;858;-63
2022/09/01 11:43:32;;;;;;;;;;;;;;;35.95;26.37;99265.88;4992756;28;1259;-66
2022/09/01 11:45:59;;;;;;;;;;;;;;;36.35;26.42;99267.66;4993999;28;1882;-66
2022/09/01 11:48:26;;;;;;;;;;;;;;;36.69;29.71;99271.78;4992251;28;1355;-65
2022/09/01 11:50:59;;;;;;;;;;;;;;;36.72;30.74;99270.59;4993894;28;886;-66
2022/09/01 11:53:26;;;;;;;;;;;;;;;36.79;30.57;99272.59;4992143;28;1216;-66
2022/09/01 11:55:56;;;;;;;;;;;;;;;36.03;32.12;99260.78;4993499;28;878;-66
2022/09/01 11:58:33;;;;;;;;;;;;;;;34.77;34.66;99269.69;4993385;28;858;-66
2022/09/01 12:01:18;;;;;;;;;;;;;;;33.86;36.18;99265.97;4993568;28;835;-65
2022/09/01 12:03:45;;;;;;;;;;;;;;;32.83;39.29;99258.66;4993262;28;795;-66
2022/09/01 12:06:18;;;;;;;;;;;;;;;32.57;39.95;99248.38;4993180;28;1886;-67
2022/09/01 12:08:52;;;;;;;;;;;;;;;33.76;39.59;99259.34;4993459;28;906;-67
2022/09/01 12:11:20;;;;;;;;;;;;;;;34.09;38.78;99256.50;4993371;28;900;-65
2022/09/01 12:14:00;;;;;;;;;;;;;;;33.35;39.87;99262.09;4993159;28;838;-64
2022/09/01 12:16:28;;;;;;;;;;;;;;;32.89;41.79;99267.84;4993345;28;882;-66
2022/09/01 12:18:57;;;;;;;;;;;;;;;33.91;40.15;99270.75;4993045;28;1283;-65
2022/09/01 12:21:33;;;;;;;;;;;;;;;34.95;37.95;99266.88;4993289;28;862;-65
2022/09/01 12:24:12;;;;;;;;;;;;;;;35.49;37.26;99272.91;4992965;28;815;-65
2022/09/01 12:26:39;;;;;;;;;;;;;;;34.44;38.59;99268.19;4992774;28;1914;-66
2022/09/01 12:29:07;;;;;;;;;;;;;;;33.61;39.98;99270.84;4992928;28;858;-66
2022/09/01 12:31:34;;;;;;;;;;;;;;;33.54;40.62;99278.88;4993016;28;830;-65
2022/09/01 12:34:23;;;;;;;;;;;;;;;34.11;38.88;99277.53;4993052;28;839;-65
2022/09/01 12:37:08;;;;;;;;;;;;;;;34.93;37.47;99278.97;4992742;28;852;-66
2022/09/01 12:39:36;;;;;;;;;;;;;;;35.63;35.88;99275.44;4992726;28;839;-66
2022/09/01 12:42:06;;;;;;;;;;;;;;;35.66;34.10;99282.91;4991316;28;1298;-66
2022/09/01 12:44:39;;;;;;;;;;;;;;;35.60;33.51;99285.25;4992608;28;878;-66
2022/09/01 12:47:12;;;;;;;;;;;;;;;35.56;34.27;99277.78;4992669;28;1890;-67
2022/09/01 12:49:43;;;;;;;;;;;;;;;35.84;33.55;99270.03;4992519;28;804;-66
2022/09/01 12:52:12;;;;;;;;;;;;;;;36.22;32.10;99268.81;4992682;28;835;-66
2022/09/01 12:54:40;;;;;;;;;;;;;;;36.35;30.27;99265.53;4992554;28;923;-66
2022/09/01 12:57:07;;;;;;;;;;;;;;;36.24;28.06;99253.84;4991106;28;1264;-67
2022/09/01 12:59:35;;;;;;;;;;;;;;;35.98;27.86;99256.06;4990518;28;1454;-64
2022/09/01 13:02:19;;;;;;;;;;;;;;;35.87;28.48;99256.59;4992348;28;905;-64
2022/09/01 13:04:48;;;;;;;;;;;;;;;35.87;30.49;99268.88;4992572;28;803;-65
2022/09/01 13:07:14;;;;;;;;;;;;;;;35.18;31.97;99272.44;4990873;28;1894;-65
2022/09/01 13:09:41;;;;;;;;;;;;;;;34.07;35.06;99277.16;4992347;28;815;-65
2022/09/01 13:12:17;;;;;;;;;;;;;;;34.01;36.94;99293.81;4991111;28;1220;-66
2022/09/01 13:14:44;;;;;;;;;;;;;;;34.66;36.88;99290.25;4990930;28;1394;-66
2022/09/01 13:17:11;;;;;;;;;;;;;;;34.68;36.31;99295.41;4990964;28;1197;-64
2022/09/01 13:19:38;;;;;;;;;;;;;;;34.81;34.79;99303.00;4991928;28;1243;-65
2022/09/01 13:22:06;;;;;;;;;;;;;;;35.02;33.56;99297.66;4992187;28;889;-65
2022/09/01 13:24:33;;;;;;;;;;;;;;;34.12;35.24;99292.66;4992157;28;874;-65
2022/09/01 13:27:00;;;;;;;;;;;;;;;32.88;37.94;99288.44;4990762;28;1939;-64
2022/09/01 13:29:27;;;;;;;;;;;;;;;32.45;36.83;99276.53;4990710;28;1165;-64
2022/09/01 13:31:54;;;;;;;;;;;;;;;32.67;37.63;99269.34;4992117;28;815;-64
2022/09/01 13:34:21;;;;;;;;;;;;;;;33.08;38.58;99275.31;4992273;28;934;-65
2022/09/01 13:36:49;;;;;;;;;;;;;;;33.48;38.20;99275.44;4992053;28;783;-64
2022/09/01 13:39:16;;;;;;;;;;;;;;;33.52;38.67;99277.91;4992064;28;850;-67
2022/09/01 13:41:43;;;;;;;;;;;;;;;33.13;40.11;99285.78;4992051;28;768;-66
2022/09/01 13:44:10;;;;;;;;;;;;;;;32.32;41.64;99280.31;4990690;28;1314;-65
2022/09/01 13:46:37;;;;;;;;;;;;;;;31.80;43.01;99282.38;4991864;28;1894;-64
2022/09/01 13:49:04;;;;;;;;;;;;;;;31.73;43.58;99277.41;4991931;28;811;-65
2022/09/01 13:51:31;;;;;;;;;;;;;;;32.00;43.62;99277.16;4991902;28;881;-66
2022/09/01 13:53:57;;;;;;;;;;;;;;;32.29;43.35;99270.00;4991959;28;795;-66
2022/09/01 13:56:24;;;;;;;;;;;;;;;32.10;43.77;99266.72;4991842;28;807;-65
2022/09/01 13:58:51;;;;;;;;;;;;;;;31.61;44.75;99274.09;4991754;28;871;-66
2022/09/01 14:01:17;;;;;;;;;;;;;;;31.45;45.39;99266.75;4990520;28;1276;-66
2022/09/01 14:03:44;;;;;;;;;;;;;;;31.68;45.07;99272.59;4991764;28;858;-66
2022/09/01 14:06:11;;;;;;;;;;;;;;;31.51;44.97;99279.56;4991755;28;1891;-66
2022/09/01 14:08:38;;;;;;;;;;;;;;;31.56;45.30;99275.03;4990456;28;1359;-66
2022/09/01 14:11:05;;;;;;;;;;;;;;;31.47;45.50;99273.47;4994030;28;988;-66
2022/09/01 14:13:33;;;;;;;;;;;;;;;31.24;46.51;99272.50;4995346;28;792;-65
2022/09/01 14:16:00;;;;;;;;;;;;;;;31.12;47.57;99269.94;4995696;28;878;-66
2022/09/01 14:18:35;;;;;;;;;;;;;;;31.40;46.52;99273.38;4995036;28;1261;-66
2022/09/01 14:21:02;;;;;;;;;;;;;;;31.59;46.76;99282.47;4996128;28;768;-66
2022/09/01 14:23:29;;;;;;;;;;;;;;;31.21;47.20;99285.03;4994062;28;1184;-65
2022/09/01 14:25:57;;;;;;;;;;;;;;;30.93;48.21;99295.09;4995479;28;1911;-67
2022/09/01 14:28:24;;;;;;;;;;;;;;;31.16;48.12;99286.72;4995280;28;858;-67
2022/09/01 14:30:51;;;;;;;;;;;;;;;31.44;47.02;99280.28;4995430;28;1173;-67
2022/09/01 14:33:23;;;;;;;;;;;;;;;31.54;46.84;99280.53;4993946;28;1228;-66
2022/09/01 14:35:50;;;;;;;;;;;;;;;31.18;47.33;99275.50;4995115;28;878;-66
2022/09/01 14:38:16;;;;;;;;;;;;;;;30.68;48.12;99275.47;4994921;28;890;-67
2022/09/01 14:40:46;;;;;;;;;;;;;;;30.57;48.52;99277.81;4995152;28;863;-65
2022/09/01 14:43:13;;;;;;;;;;;;;;;30.56;48.92;99282.75;4995396;28;850;-66
2022/09/01 14:45:43;;;;;;;;;;;;;;;30.50;49.05;99290.66;4994755;28;827;-65
2022/09/01 14:48:10;;;;;;;;;;;;;;;29.86;50.15;99284.00;4994594;28;1910;-65
2022/09/01 14:50:41;;;;;;;;;;;;;;;28.97;52.51;99281.50;4994638;28;803;-63
2022/09/01 14:53:08;;;;;;;;;;;;;;;28.16;54.40;99291.00;4994862;28;905;-66
2022/09/01 14:55:34;;;;;;;;;;;;;;;27.66;56.27;99298.09;4994856;28;854;-65
2022/09/01 14:58:01;;;;;;;;;;;;;;;27.12;58.15;99304.53;4993199;28;1239;-66
2022/09/01 15:00:30;;;;;;;;;;;;;;;26.79;60.09;99303.53;4993370;28;909;-66
2022/09/01 15:02:57;;;;;;;;;;;;;;;26.60;60.76;99307.00;4994538;28;815;-66
2022/09/01 15:05:24;;;;;;;;;;;;;;;26.42;61.71;99307.66;4994438;28;835;-66
2022/09/01 15:07:50;;;;;;;;;;;;;;;26.27;62.55;99302.31;4994309;28;1890;-66
2022/09/01 15:10:19;;;;;;;;;;;;;;;26.27;62.72;99308.75;4993146;28;1452;-66
2022/09/01 15:12:48;;;;;;;;;;;;;;;26.26;62.86;99306.44;4994226;28;941;-66
2022/09/01 15:15:16;;;;;;;;;;;;;;;26.22;62.83;99298.22;4994210;28;791;-66
2022/09/01 15:17:43;;;;;;;;;;;;;;;26.15;63.35;99289.50;4994219;28;811;-66
2022/09/01 15:22:55;;;;;;;;;;;;;;;26.16;63.19;99303.16;4993843;28;620;-67
2022/09/01 15:25:22;;;;;;;;;;;;;;;26.05;63.75;99306.81;4994098;28;886;-66
2022/09/01 15:27:48;;;;;;;;;;;;;;;26.01;63.26;99300.66;4993907;28;1973;-67
2022/09/01 15:30:16;;;;;;;;;;;;;;;25.99;63.37;99305.28;4994001;28;783;-68
2022/09/01 15:32:43;;;;;;;;;;;;;;;25.95;63.45;99310.47;4993851;28;1166;-67
2022/09/01 15:35:11;;;;;;;;;;;;;;;25.87;63.68;99305.31;4993969;28;799;-66
2022/09/01 15:37:38;;;;;;;;;;;;;;;25.81;63.87;99310.22;4993871;28;815;-67
2022/09/01 15:40:06;;;;;;;;;;;;;;;25.82;63.98;99306.09;4993792;28;791;-67
2022/09/01 15:42:35;;;;;;;;;;;;;;;25.89;63.87;99310.47;4993763;28;784;-66
2022/09/01 15:45:06;;;;;;;;;;;;;;;25.91;63.94;99307.91;4993685;28;882;-67
2022/09/01 15:47:34;;;;;;;;;;;;;;;25.87;64.24;99313.03;4993704;28;1894;-67
2022/09/01 15:50:04;;;;;;;;;;;;;;;25.82;64.34;99325.91;4992345;28;1303;-67
2022/09/01 15:52:33;;;;;;;;;;;;;;;25.76;64.76;99321.56;4993646;28;898;-66